Time;durP1;ratioP1;P1;durP2;ratioP2;P2;SDS_P1;SDS_P2;PMS_P1;PMS_P2;Temp;Humidity;BMP_temperature;BMP_pressure;BME280_temperature;BME280_humidity;BME280_pressure;Samples;Min_cycle;Max_cycle;Signal;HPM_P1;HPM_P2
2022/02/28 00:00:03;;;;;;;;;;;;;;;;;;2098398;28;19929;-48
2022/02/28 00:01:04;;;;;;;;;;;;;;;;;;2097208;28;19951;-43
2022/02/28 00:02:05;;;;;;;;;;;;;;;;;;2089600;28;20074;-43
2022/02/28 00:03:06;;;;;;;;;;;;;;;;;;2089805;28;19932;-43
2022/02/28 00:04:07;;;;;;;;;;;;;;;;;;2093608;28;19935;-43
2022/02/28 00:05:07;;;;;;;;;;;;;;;;;;2097850;28;20511;-44
2022/02/28 00:06:08;;;;;;;;;;;;;;;;;;2097827;28;19925;-43
2022/02/28 00:07:09;;;;;;;;;;;;;;;;;;2094229;28;19925;-43
2022/02/28 00:08:11;;;;;;;;;;;;;;;;;;2097879;28;20316;-43
2022/02/28 00:09:11;;;;;;;;;;;;;;;;;;2097173;28;20015;-43
2022/02/28 00:10:13;;;;;;;;;;;;;;;;;;2095382;28;20392;-43
2022/02/28 00:11:13;;;;;;;;;;;;;;;;;;2096253;28;19924;-42
2022/02/28 00:12:14;;;;;;;;;;;;;;;;;;2095100;28;19960;-43
2022/02/28 00:13:15;;;;;;;;;;;;;;;;;;2096527;28;19964;-43
2022/02/28 00:14:16;;;;;;;;;;;;;;;;;;2097881;28;19924;-43
2022/02/28 00:15:17;;;;;;;;;;;;;;;;;;2095879;28;20360;-44
2022/02/28 00:16:18;;;;;;;;;;;;;;;;;;2097559;28;19925;-43
2022/02/28 00:17:18;;;;;;;;;;;;;;;;;;2097782;28;19924;-43
2022/02/28 00:18:19;;;;;;;;;;;;;;;;;;2094388;28;19978;-43
2022/02/28 00:19:20;;;;;;;;;;;;;;;;;;2094523;28;20005;-43
2022/02/28 00:20:21;;;;;;;;;;;;;;;;;;2089105;28;19925;-43
2022/02/28 00:21:22;;;;;;;;;;;;;;;;;;2094896;28;20019;-43
2022/02/28 00:22:23;;;;;;;;;;;;;;;;;;2097781;28;19925;-43
2022/02/28 00:23:24;;;;;;;;;;;;;;;;;;2095623;28;19978;-43
2022/02/28 00:24:25;;;;;;;;;;;;;;;;;;2097340;28;19924;-43
2022/02/28 00:25:26;;;;;;;;;;;;;;;;;;2097725;28;20283;-43
2022/02/28 00:26:26;;;;;;;;;;;;;;;;;;2094715;28;19924;-43
2022/02/28 00:27:27;;;;;;;;;;;;;;;;;;2097762;28;19929;-43
2022/02/28 00:28:29;;;;;;;;;;;;;;;;;;2096887;28;20337;-43
2022/02/28 00:29:30;;;;;;;;;;;;;;;;;;2093905;28;20017;-44
2022/02/28 00:30:31;;;;;;;;;;;;;;;;;;2097699;28;20040;-44
2022/02/28 00:31:32;;;;;;;;;;;;;;;;;;2097586;28;19968;-44
2022/02/28 00:32:33;;;;;;;;;;;;;;;;;;2095720;28;19985;-49
2022/02/28 00:33:34;;;;;;;;;;;;;;;;;;2097795;28;20011;-48
2022/02/28 00:34:35;;;;;;;;;;;;;;;;;;2096994;28;19979;-48
2022/02/28 00:35:36;;;;;;;;;;;;;;;;;;2095338;28;20342;-48
2022/02/28 00:36:37;;;;;;;;;;;;;;;;;;2097638;28;20301;-48
2022/02/28 00:37:38;;;;;;;;;;;;;;;;;;2097198;28;19925;-49
2022/02/28 00:38:39;;;;;;;;;;;;;;;;;;2094118;28;19979;-47
2022/02/28 00:39:40;;;;;;;;;;;;;;;;;;2089469;28;19925;-48
2022/02/28 00:40:41;;;;;;;;;;;;;;;;;;2091466;28;19963;-48
2022/02/28 00:41:41;;;;;;;;;;;;;;;;;;2096146;28;20152;-48
2022/02/28 00:42:42;;;;;;;;;;;;;;;;;;2097787;28;19931;-49
2022/02/28 00:43:43;;;;;;;;;;;;;;;;;;2096078;28;20030;-48
2022/02/28 00:44:44;;;;;;;;;;;;;;;;;;2089869;28;19928;-47
2022/02/28 00:45:46;;;;;;;;;;;;;;;;;;2089399;28;20414;-48
2022/02/28 00:46:47;;;;;;;;;;;;;;;;;;2093532;28;19980;-48
2022/02/28 00:47:47;;;;;;;;;;;;;;;;;;2099270;28;19928;-44
2022/02/28 00:48:48;;;;;;;;;;;;;;;;;;2098772;28;19978;-44
2022/02/28 00:49:50;;;;;;;;;;;;;;;;;;2097229;28;19929;-49
2022/02/28 00:50:51;;;;;;;;;;;;;;;;;;2098801;28;19964;-48
2022/02/28 00:51:52;;;;;;;;;;;;;;;;;;2096833;28;20048;-48
2022/02/28 00:52:53;;;;;;;;;;;;;;;;;;2098123;28;19924;-51
2022/02/28 00:53:54;;;;;;;;;;;;;;;;;;2098844;28;19940;-48
2022/02/28 00:54:55;;;;;;;;;;;;;;;;;;2096164;28;19956;-50
2022/02/28 00:55:55;;;;;;;;;;;;;;;;;;2098679;28;19932;-49
2022/02/28 00:56:56;;;;;;;;;;;;;;;;;;2099068;28;19929;-48
2022/02/28 00:57:57;;;;;;;;;;;;;;;;;;2095796;28;19935;-50
2022/02/28 00:58:58;;;;;;;;;;;;;;;;;;2099187;28;20297;-48
2022/02/28 00:59:59;;;;;;;;;;;;;;;;;;2099156;28;19975;-49
2022/02/28 01:01:00;;;;;;;;;;;;;;;;;;2094546;28;19924;-49
2022/02/28 01:02:01;;;;;;;;;;;;;;;;;;2099153;28;20023;-48
2022/02/28 01:03:02;;;;;;;;;;;;;;;;;;2097668;28;19925;-49
2022/02/28 01:04:03;;;;;;;;;;;;;;;;;;2096555;28;20011;-49
2022/02/28 01:05:03;;;;;;;;;;;;;;;;;;2099062;28;19929;-49
2022/02/28 01:06:05;;;;;;;;;;;;;;;;;;2098233;28;20010;-50
2022/02/28 01:07:05;;;;;;;;;;;;;;;;;;2097764;28;19948;-44
2022/02/28 01:08:06;;;;;;;;;;;;;;;;;;2099003;28;19974;-44
2022/02/28 01:10:28;;;;;;;;;;;;;;;;;;2089932;28;20556;-49
2022/02/28 01:11:29;;;;;;;;;;;;;;;;;;2096867;28;19924;-48
2022/02/28 01:12:30;;;;;;;;;;;;;;;;;;2094457;28;19925;-52
2022/02/28 01:13:31;;;;;;;;;;;;;;;;;;2089913;28;20388;-48
2022/02/28 01:14:32;;;;;;;;;;;;;;;;;;2092082;28;20024;-50
2022/02/28 01:15:33;;;;;;;;;;;;;;;;;;2098145;28;19925;-49
2022/02/28 01:16:34;;;;;;;;;;;;;;;;;;2098914;28;19994;-48
2022/02/28 01:17:35;;;;;;;;;;;;;;;;;;2096907;28;19924;-49
2022/02/28 01:18:36;;;;;;;;;;;;;;;;;;2098742;28;20027;-48
2022/02/28 01:19:37;;;;;;;;;;;;;;;;;;2099014;28;20088;-49
2022/02/28 01:20:38;;;;;;;;;;;;;;;;;;2095689;28;19933;-49
2022/02/28 01:21:39;;;;;;;;;;;;;;;;;;2099114;28;20285;-49
2022/02/28 01:22:40;;;;;;;;;;;;;;;;;;2098975;28;19975;-48
2022/02/28 01:23:42;;;;;;;;;;;;;;;;;;2095654;28;19932;-49
2022/02/28 01:24:43;;;;;;;;;;;;;;;;;;2099108;28;19925;-49
2022/02/28 01:25:45;;;;;;;;;;;;;;;;;;2096695;28;19967;-48
2022/02/28 01:26:49;;;;;;;;;;;;;;;;;;2094771;28;19974;-48
2022/02/28 01:27:50;;;;;;;;;;;;;;;;;;2098508;28;20402;-49
2022/02/28 01:28:51;;;;;;;;;;;;;;;;;;2096877;28;19925;-48
2022/02/28 01:29:51;;;;;;;;;;;;;;;;;;2098713;28;19924;-49
2022/02/28 01:30:52;;;;;;;;;;;;;;;;;;2098966;28;20015;-48
2022/02/28 01:31:53;;;;;;;;;;;;;;;;;;2095122;28;20015;-43
2022/02/28 01:32:55;;;;;;;;;;;;;;;;;;2098376;28;19924;-43
2022/02/28 01:33:56;;;;;;;;;;;;;;;;;;2098476;28;19924;-44
2022/02/28 01:34:57;;;;;;;;;;;;;;;;;;2094172;28;19932;-44
2022/02/28 01:35:57;;;;;;;;;;;;;;;;;;2090263;28;20348;-48
2022/02/28 01:36:58;;;;;;;;;;;;;;;;;;2090679;28;20072;-49
2022/02/28 01:37:59;;;;;;;;;;;;;;;;;;2096464;28;19925;-49
2022/02/28 01:39:00;;;;;;;;;;;;;;;;;;2098151;28;19935;-50
2022/02/28 01:40:01;;;;;;;;;;;;;;;;;;2097866;28;19924;-48
2022/02/28 01:41:02;;;;;;;;;;;;;;;;;;2095421;28;19925;-49
2022/02/28 01:42:03;;;;;;;;;;;;;;;;;;2098427;28;20419;-44
2022/02/28 01:43:04;;;;;;;;;;;;;;;;;;2095395;28;20011;-44
2022/02/28 01:44:04;;;;;;;;;;;;;;;;;;2098665;28;19967;-44
2022/02/28 01:45:05;;;;;;;;;;;;;;;;;;2098799;28;19931;-44
2022/02/28 01:46:06;;;;;;;;;;;;;;;;;;2096513;28;19925;-44
2022/02/28 01:47:07;;;;;;;;;;;;;;;;;;2098814;28;19932;-44
2022/02/28 01:48:08;;;;;;;;;;;;;;;;;;2099099;28;19924;-44
2022/02/28 01:49:09;;;;;;;;;;;;;;;;;;2095249;28;19924;-44
2022/02/28 01:50:09;;;;;;;;;;;;;;;;;;2098668;28;19936;-44
2022/02/28 01:51:11;;;;;;;;;;;;;;;;;;2098202;28;19928;-44
2022/02/28 01:52:14;;;;;;;;;;;;;;;;;;2097089;28;19931;-43
2022/02/28 01:53:15;;;;;;;;;;;;;;;;;;2099035;28;20073;-44
2022/02/28 01:54:15;;;;;;;;;;;;;;;;;;2095984;28;20016;-43
2022/02/28 01:55:16;;;;;;;;;;;;;;;;;;2097172;28;19956;-44
2022/02/28 01:56:17;;;;;;;;;;;;;;;;;;2098645;28;20404;-44
2022/02/28 01:57:18;;;;;;;;;;;;;;;;;;2096599;28;20408;-44
2022/02/28 01:58:19;;;;;;;;;;;;;;;;;;2098104;28;20007;-44
2022/02/28 01:59:20;;;;;;;;;;;;;;;;;;2098530;28;19925;-44
2022/02/28 02:00:20;;;;;;;;;;;;;;;;;;2096691;28;19925;-44
2022/02/28 02:01:21;;;;;;;;;;;;;;;;;;2099320;28;19925;-49
2022/02/28 02:02:22;;;;;;;;;;;;;;;;;;2098306;28;19925;-49
2022/02/28 02:03:23;;;;;;;;;;;;;;;;;;2095286;28;19925;-48
2022/02/28 02:04:24;;;;;;;;;;;;;;;;;;2098760;28;20170;-48
2022/02/28 02:05:26;;;;;;;;;;;;;;;;;;2091528;28;20366;-48
2022/02/28 02:06:27;;;;;;;;;;;;;;;;;;2093898;28;19941;-44
2022/02/28 02:07:28;;;;;;;;;;;;;;;;;;2094426;28;19925;-44
2022/02/28 02:08:28;;;;;;;;;;;;;;;;;;2092523;28;19990;-43
2022/02/28 02:09:29;;;;;;;;;;;;;;;;;;2097411;28;19925;-43
2022/02/28 02:10:30;;;;;;;;;;;;;;;;;;2098750;28;19924;-43
2022/02/28 02:11:31;;;;;;;;;;;;;;;;;;2094831;28;19928;-43
2022/02/28 02:12:38;;;;;;;;;;;;;;;;;;2097591;28;20415;-43
2022/02/28 02:13:39;;;;;;;;;;;;;;;;;;2098224;28;19925;-44
2022/02/28 02:14:40;;;;;;;;;;;;;;;;;;2096169;28;20015;-44
2022/02/28 02:15:41;;;;;;;;;;;;;;;;;;2098547;28;19930;-49
2022/02/28 02:16:42;;;;;;;;;;;;;;;;;;2097647;28;19931;-48
2022/02/28 02:17:43;;;;;;;;;;;;;;;;;;2096270;28;19925;-49
2022/02/28 02:18:44;;;;;;;;;;;;;;;;;;2098506;28;19928;-50
2022/02/28 02:19:45;;;;;;;;;;;;;;;;;;2097760;28;20008;-51
2022/02/28 02:20:46;;;;;;;;;;;;;;;;;;2097059;28;19924;-49
2022/02/28 02:21:46;;;;;;;;;;;;;;;;;;2098591;28;20010;-49
2022/02/28 02:22:47;;;;;;;;;;;;;;;;;;2095069;28;19925;-48
2022/02/28 02:23:48;;;;;;;;;;;;;;;;;;2098434;28;19924;-49
2022/02/28 02:24:51;;;;;;;;;;;;;;;;;;2091328;28;19925;-48
2022/02/28 02:25:53;;;;;;;;;;;;;;;;;;2092087;28;19932;-48
2022/02/28 02:26:54;;;;;;;;;;;;;;;;;;2097904;28;19925;-48
2022/02/28 02:27:55;;;;;;;;;;;;;;;;;;2093528;28;19932;-48
2022/02/28 02:28:56;;;;;;;;;;;;;;;;;;2092251;28;19928;-48
2022/02/28 02:29:57;;;;;;;;;;;;;;;;;;2096546;28;19936;-48
2022/02/28 02:30:58;;;;;;;;;;;;;;;;;;2095103;28;19929;-44
2022/02/28 02:31:59;;;;;;;;;;;;;;;;;;2096210;28;20322;-43
2022/02/28 02:33:00;;;;;;;;;;;;;;;;;;2098594;28;19931;-43
2022/02/28 02:34:02;;;;;;;;;;;;;;;;;;2096173;28;20280;-48
2022/02/28 02:35:05;;;;;;;;;;;;;;;;;;2098041;28;19970;-47
2022/02/28 02:36:06;;;;;;;;;;;;;;;;;;2097841;28;19977;-44
2022/02/28 02:37:07;;;;;;;;;;;;;;;;;;2095736;28;19924;-43
2022/02/28 02:38:08;;;;;;;;;;;;;;;;;;2098276;28;19924;-44
2022/02/28 02:39:09;;;;;;;;;;;;;;;;;;2091813;28;20305;-44
2022/02/28 02:40:10;;;;;;;;;;;;;;;;;;2093903;28;19924;-43
2022/02/28 02:41:11;;;;;;;;;;;;;;;;;;2090265;28;20002;-44
2022/02/28 02:42:12;;;;;;;;;;;;;;;;;;2096240;28;19925;-44
2022/02/28 02:43:13;;;;;;;;;;;;;;;;;;2096079;28;19933;-48
2022/02/28 02:44:14;;;;;;;;;;;;;;;;;;2098448;28;20400;-51
2022/02/28 02:45:15;;;;;;;;;;;;;;;;;;2097988;28;19924;-49
2022/02/28 02:46:16;;;;;;;;;;;;;;;;;;2096367;28;20301;-50
2022/02/28 02:47:17;;;;;;;;;;;;;;;;;;2098319;28;19966;-51
2022/02/28 02:48:18;;;;;;;;;;;;;;;;;;2097297;28;19947;-49
2022/02/28 02:49:19;;;;;;;;;;;;;;;;;;2097718;28;19970;-44
2022/02/28 02:50:20;;;;;;;;;;;;;;;;;;2098037;28;20289;-44
2022/02/28 02:51:21;;;;;;;;;;;;;;;;;;2094077;28;20035;-43
2022/02/28 02:52:22;;;;;;;;;;;;;;;;;;2098090;28;20019;-43
2022/02/28 02:53:23;;;;;;;;;;;;;;;;;;2098377;28;19975;-45
2022/02/28 02:54:25;;;;;;;;;;;;;;;;;;2096124;28;20019;-44
2022/02/28 02:55:26;;;;;;;;;;;;;;;;;;2098418;28;19932;-44
2022/02/28 02:56:45;;;;;;;;;;;;;;;;;;2097741;28;19925;-44
2022/02/28 02:57:46;;;;;;;;;;;;;;;;;;2096863;28;19928;-44
2022/02/28 02:58:47;;;;;;;;;;;;;;;;;;2098423;28;19928;-43
2022/02/28 02:59:49;;;;;;;;;;;;;;;;;;2094867;28;20521;-49
2022/02/28 03:00:53;;;;;;;;;;;;;;;;;;2097047;28;20313;-53
2022/02/28 03:01:54;;;;;;;;;;;;;;;;;;2098331;28;19924;-51
2022/02/28 03:02:55;;;;;;;;;;;;;;;;;;2095973;28;20030;-48
2022/02/28 03:03:56;;;;;;;;;;;;;;;;;;2098272;28;20181;-49
2022/02/28 03:04:57;;;;;;;;;;;;;;;;;;2093891;28;19928;-49
2022/02/28 03:05:58;;;;;;;;;;;;;;;;;;2095982;28;19932;-51
2022/02/28 03:06:59;;;;;;;;;;;;;;;;;;2098252;28;19932;-49
2022/02/28 03:08:00;;;;;;;;;;;;;;;;;;2097599;28;19925;-49
2022/02/28 03:09:01;;;;;;;;;;;;;;;;;;2094168;28;19932;-48
2022/02/28 03:10:02;;;;;;;;;;;;;;;;;;2096567;28;19935;-48
2022/02/28 03:11:03;;;;;;;;;;;;;;;;;;2095658;28;19932;-49
2022/02/28 03:12:04;;;;;;;;;;;;;;;;;;2093473;28;19925;-48
2022/02/28 03:13:05;;;;;;;;;;;;;;;;;;2089902;28;19956;-48
2022/02/28 03:14:06;;;;;;;;;;;;;;;;;;2091527;28;20002;-48
2022/02/28 03:15:07;;;;;;;;;;;;;;;;;;2098020;28;20301;-47
2022/02/28 03:16:07;;;;;;;;;;;;;;;;;;2096037;28;19925;-48
2022/02/28 03:17:08;;;;;;;;;;;;;;;;;;2094612;28;19997;-50
2022/02/28 03:18:10;;;;;;;;;;;;;;;;;;2089777;28;19924;-50
2022/02/28 03:19:10;;;;;;;;;;;;;;;;;;2096528;28;20011;-49
2022/02/28 03:20:12;;;;;;;;;;;;;;;;;;2094508;28;20190;-49
2022/02/28 03:21:14;;;;;;;;;;;;;;;;;;2089485;28;19929;-50
2022/02/28 03:22:15;;;;;;;;;;;;;;;;;;2091219;28;19991;-48
2022/02/28 03:23:15;;;;;;;;;;;;;;;;;;2095590;28;19928;-48
2022/02/28 03:24:16;;;;;;;;;;;;;;;;;;2098161;28;20381;-49
2022/02/28 03:25:17;;;;;;;;;;;;;;;;;;2095682;28;20026;-48
2022/02/28 03:26:18;;;;;;;;;;;;;;;;;;2097589;28;19973;-48
2022/02/28 03:27:19;;;;;;;;;;;;;;;;;;2098109;28;19960;-48
2022/02/28 03:28:20;;;;;;;;;;;;;;;;;;2095809;28;20007;-51
2022/02/28 03:29:21;;;;;;;;;;;;;;;;;;2098139;28;19970;-48
2022/02/28 03:30:22;;;;;;;;;;;;;;;;;;2098293;28;19925;-50
2022/02/28 03:31:22;;;;;;;;;;;;;;;;;;2095858;28;19939;-48
2022/02/28 03:32:23;;;;;;;;;;;;;;;;;;2098235;28;19924;-48
2022/02/28 03:33:24;;;;;;;;;;;;;;;;;;2097588;28;19932;-48
2022/02/28 03:34:25;;;;;;;;;;;;;;;;;;2096215;28;19970;-49
2022/02/28 03:35:26;;;;;;;;;;;;;;;;;;2098034;28;19924;-51
2022/02/28 03:36:27;;;;;;;;;;;;;;;;;;2096434;28;19932;-48
2022/02/28 03:37:28;;;;;;;;;;;;;;;;;;2096661;28;19932;-48
2022/02/28 03:38:29;;;;;;;;;;;;;;;;;;2097370;28;19932;-48
2022/02/28 03:39:30;;;;;;;;;;;;;;;;;;2094659;28;20366;-49
2022/02/28 03:40:31;;;;;;;;;;;;;;;;;;2097636;28;20407;-48
2022/02/28 03:41:32;;;;;;;;;;;;;;;;;;2096992;28;19924;-49
2022/02/28 03:42:32;;;;;;;;;;;;;;;;;;2091260;28;19925;-48
2022/02/28 03:43:33;;;;;;;;;;;;;;;;;;2098142;28;19925;-49
2022/02/28 03:44:34;;;;;;;;;;;;;;;;;;2098023;28;19959;-50
2022/02/28 03:45:35;;;;;;;;;;;;;;;;;;2094607;28;19925;-48
2022/02/28 03:46:36;;;;;;;;;;;;;;;;;;2097916;28;19924;-48
2022/02/28 03:47:37;;;;;;;;;;;;;;;;;;2097430;28;19924;-49
2022/02/28 03:48:38;;;;;;;;;;;;;;;;;;2096201;28;19931;-48
2022/02/28 03:49:39;;;;;;;;;;;;;;;;;;2097980;28;19925;-48
2022/02/28 03:50:40;;;;;;;;;;;;;;;;;;2095445;28;19929;-48
2022/02/28 03:51:41;;;;;;;;;;;;;;;;;;2096067;28;19924;-48
2022/02/28 03:52:41;;;;;;;;;;;;;;;;;;2095957;28;19924;-44
2022/02/28 03:53:42;;;;;;;;;;;;;;;;;;2091257;28;19930;-44
2022/02/28 03:54:43;;;;;;;;;;;;;;;;;;2094697;28;19924;-43
2022/02/28 03:55:44;;;;;;;;;;;;;;;;;;2097851;28;20404;-43
2022/02/28 03:56:45;;;;;;;;;;;;;;;;;;2094832;28;19933;-44
2022/02/28 03:57:46;;;;;;;;;;;;;;;;;;2090827;28;19925;-44
2022/02/28 03:58:47;;;;;;;;;;;;;;;;;;2089828;28;19929;-44
2022/02/28 03:59:47;;;;;;;;;;;;;;;;;;2091124;28;19931;-44
2022/02/28 04:00:48;;;;;;;;;;;;;;;;;;2096771;28;19931;-44
2022/02/28 04:01:49;;;;;;;;;;;;;;;;;;2097919;28;19928;-44
2022/02/28 04:02:50;;;;;;;;;;;;;;;;;;2094676;28;19925;-44
2022/02/28 04:03:51;;;;;;;;;;;;;;;;;;2097813;28;20301;-44
2022/02/28 04:04:52;;;;;;;;;;;;;;;;;;2097815;28;20044;-44
2022/02/28 04:05:53;;;;;;;;;;;;;;;;;;2095776;28;20388;-44
2022/02/28 04:06:54;;;;;;;;;;;;;;;;;;2097947;28;20019;-44
2022/02/28 04:07:55;;;;;;;;;;;;;;;;;;2096972;28;19924;-43
2022/02/28 04:08:56;;;;;;;;;;;;;;;;;;2095479;28;20487;-43
2022/02/28 04:09:57;;;;;;;;;;;;;;;;;;2098067;28;19970;-44
2022/02/28 04:10:57;;;;;;;;;;;;;;;;;;2096902;28;19928;-43
2022/02/28 04:11:58;;;;;;;;;;;;;;;;;;2096345;28;19924;-44
2022/02/28 04:12:59;;;;;;;;;;;;;;;;;;2097827;28;20496;-43
2022/02/28 04:14:00;;;;;;;;;;;;;;;;;;2095825;28;19928;-43
2022/02/28 04:15:04;;;;;;;;;;;;;;;;;;2096717;28;20054;-44
2022/02/28 04:16:05;;;;;;;;;;;;;;;;;;2097744;28;20302;-44
2022/02/28 04:17:06;;;;;;;;;;;;;;;;;;2092534;28;19924;-44
2022/02/28 04:18:07;;;;;;;;;;;;;;;;;;2097525;28;20380;-44
2022/02/28 04:19:09;;;;;;;;;;;;;;;;;;2097909;28;20367;-43
2022/02/28 04:20:09;;;;;;;;;;;;;;;;;;2093076;28;19967;-44
2022/02/28 04:21:10;;;;;;;;;;;;;;;;;;2096352;28;19924;-43
2022/02/28 04:22:11;;;;;;;;;;;;;;;;;;2096160;28;19924;-43
2022/02/28 04:23:12;;;;;;;;;;;;;;;;;;2093934;28;19924;-44
2022/02/28 04:24:13;;;;;;;;;;;;;;;;;;2097792;28;19931;-44
2022/02/28 04:25:14;;;;;;;;;;;;;;;;;;2097409;28;19932;-44
2022/02/28 04:26:17;;;;;;;;;;;;;;;;;;2095258;28;19971;-43
2022/02/28 04:27:18;;;;;;;;;;;;;;;;;;2097663;28;19936;-43
2022/02/28 04:28:19;;;;;;;;;;;;;;;;;;2096507;28;19931;-44
2022/02/28 04:29:20;;;;;;;;;;;;;;;;;;2095791;28;20297;-44
2022/02/28 04:30:20;;;;;;;;;;;;;;;;;;2097878;28;19924;-44
2022/02/28 04:31:21;;;;;;;;;;;;;;;;;;2096494;28;19925;-44
2022/02/28 04:32:22;;;;;;;;;;;;;;;;;;2096931;28;20033;-43
2022/02/28 04:33:23;;;;;;;;;;;;;;;;;;2097794;28;20129;-43
2022/02/28 04:34:24;;;;;;;;;;;;;;;;;;2095992;28;19964;-43
2022/02/28 04:35:25;;;;;;;;;;;;;;;;;;2097749;28;19932;-44
2022/02/28 04:36:26;;;;;;;;;;;;;;;;;;2097566;28;20400;-44
2022/02/28 04:37:27;;;;;;;;;;;;;;;;;;2095151;28;20025;-48
2022/02/28 04:38:28;;;;;;;;;;;;;;;;;;2097432;28;19933;-48
2022/02/28 04:39:29;;;;;;;;;;;;;;;;;;2092252;28;19925;-48
2022/02/28 04:40:30;;;;;;;;;;;;;;;;;;2096361;28;19973;-44
2022/02/28 04:41:30;;;;;;;;;;;;;;;;;;2097693;28;19971;-44
2022/02/28 04:42:31;;;;;;;;;;;;;;;;;;2096819;28;19931;-44
2022/02/28 04:43:32;;;;;;;;;;;;;;;;;;2096421;28;20397;-43
2022/02/28 04:44:33;;;;;;;;;;;;;;;;;;2097624;28;19935;-43
2022/02/28 04:45:34;;;;;;;;;;;;;;;;;;2094878;28;19936;-44
2022/02/28 04:46:35;;;;;;;;;;;;;;;;;;2094134;28;19929;-44
2022/02/28 04:47:36;;;;;;;;;;;;;;;;;;2089251;28;20408;-44
2022/02/28 04:48:37;;;;;;;;;;;;;;;;;;2093801;28;19935;-44
2022/02/28 04:49:38;;;;;;;;;;;;;;;;;;2097389;28;20273;-44
2022/02/28 04:50:39;;;;;;;;;;;;;;;;;;2097203;28;19925;-43
2022/02/28 04:51:40;;;;;;;;;;;;;;;;;;2094630;28;19978;-44
2022/02/28 04:52:41;;;;;;;;;;;;;;;;;;2093027;28;19924;-49
2022/02/28 04:53:41;;;;;;;;;;;;;;;;;;2091015;28;19936;-43
2022/02/28 04:54:43;;;;;;;;;;;;;;;;;;2092191;28;20015;-43
2022/02/28 04:55:43;;;;;;;;;;;;;;;;;;2089448;28;20007;-43
2022/02/28 04:56:44;;;;;;;;;;;;;;;;;;2090719;28;19957;-43
2022/02/28 04:57:45;;;;;;;;;;;;;;;;;;2096504;28;20491;-52
2022/02/28 04:58:46;;;;;;;;;;;;;;;;;;2097647;28;20058;-52
2022/02/28 04:59:47;;;;;;;;;;;;;;;;;;2093189;28;19958;-49
2022/02/28 05:00:48;;;;;;;;;;;;;;;;;;2090569;28;19928;-49
2022/02/28 05:01:49;;;;;;;;;;;;;;;;;;2089721;28;19924;-44
2022/02/28 05:02:51;;;;;;;;;;;;;;;;;;2094471;28;19967;-43
2022/02/28 05:03:51;;;;;;;;;;;;;;;;;;2097610;28;20292;-44
2022/02/28 05:04:52;;;;;;;;;;;;;;;;;;2092394;28;19925;-47
2022/02/28 05:05:53;;;;;;;;;;;;;;;;;;2095626;28;19987;-49
2022/02/28 05:06:54;;;;;;;;;;;;;;;;;;2097350;28;19925;-48
2022/02/28 05:07:55;;;;;;;;;;;;;;;;;;2095402;28;20465;-44
2022/02/28 05:08:56;;;;;;;;;;;;;;;;;;2096213;28;19924;-43
2022/02/28 05:09:57;;;;;;;;;;;;;;;;;;2097564;28;20001;-44
2022/02/28 05:10:58;;;;;;;;;;;;;;;;;;2093664;28;19982;-44
2022/02/28 05:11:58;;;;;;;;;;;;;;;;;;2093240;28;19931;-48
2022/02/28 05:13:00;;;;;;;;;;;;;;;;;;2097705;28;19939;-51
2022/02/28 05:14:00;;;;;;;;;;;;;;;;;;2093913;28;20015;-48
2022/02/28 05:15:01;;;;;;;;;;;;;;;;;;2094629;28;19935;-48
2022/02/28 05:16:02;;;;;;;;;;;;;;;;;;2090651;28;19971;-43
2022/02/28 05:17:03;;;;;;;;;;;;;;;;;;2092862;28;20013;-43
2022/02/28 05:18:04;;;;;;;;;;;;;;;;;;2097822;28;20019;-44
2022/02/28 05:19:05;;;;;;;;;;;;;;;;;;2095960;28;20317;-43
2022/02/28 05:20:06;;;;;;;;;;;;;;;;;;2095575;28;19928;-43
2022/02/28 05:21:07;;;;;;;;;;;;;;;;;;2097548;28;19924;-48
2022/02/28 05:22:07;;;;;;;;;;;;;;;;;;2095061;28;19944;-48
2022/02/28 05:23:09;;;;;;;;;;;;;;;;;;2096369;28;19978;-44
2022/02/28 05:24:09;;;;;;;;;;;;;;;;;;2097618;28;20054;-43
2022/02/28 05:25:10;;;;;;;;;;;;;;;;;;2095701;28;19993;-49
2022/02/28 05:26:11;;;;;;;;;;;;;;;;;;2096367;28;20022;-48
2022/02/28 05:27:12;;;;;;;;;;;;;;;;;;2097331;28;20023;-49
2022/02/28 05:28:13;;;;;;;;;;;;;;;;;;2093220;28;20065;-48
2022/02/28 05:29:14;;;;;;;;;;;;;;;;;;2097580;28;20364;-49
2022/02/28 05:30:15;;;;;;;;;;;;;;;;;;2091937;28;19932;-48
2022/02/28 05:31:16;;;;;;;;;;;;;;;;;;2093013;28;20289;-44
2022/02/28 05:32:16;;;;;;;;;;;;;;;;;;2089168;28;19925;-44
2022/02/28 05:33:19;;;;;;;;;;;;;;;;;;2088613;28;20022;-43
2022/02/28 05:34:19;;;;;;;;;;;;;;;;;;2095485;28;19929;-44
2022/02/28 05:35:23;;;;;;;;;;;;;;;;;;2091957;28;20295;-49
2022/02/28 05:36:24;;;;;;;;;;;;;;;;;;2093301;28;20357;-47
2022/02/28 05:37:25;;;;;;;;;;;;;;;;;;2097851;28;19924;-51
2022/02/28 05:38:26;;;;;;;;;;;;;;;;;;2098926;28;19960;-49
2022/02/28 05:39:26;;;;;;;;;;;;;;;;;;2093941;28;19928;-48
2022/02/28 05:40:27;;;;;;;;;;;;;;;;;;2090788;28;20019;-49
2022/02/28 05:41:28;;;;;;;;;;;;;;;;;;2097848;28;19933;-49
2022/02/28 05:42:29;;;;;;;;;;;;;;;;;;2096610;28;19931;-48
2022/02/28 05:43:30;;;;;;;;;;;;;;;;;;2099240;28;19925;-44
2022/02/28 05:44:33;;;;;;;;;;;;;;;;;;2094504;28;20058;-44
2022/02/28 05:45:37;;;;;;;;;;;;;;;;;;2090731;28;19964;-43
2022/02/28 05:46:41;;;;;;;;;;;;;;;;;;2097791;28;19924;-43
2022/02/28 05:47:42;;;;;;;;;;;;;;;;;;2093464;28;19924;-48
2022/02/28 05:48:43;;;;;;;;;;;;;;;;;;2096033;28;19995;-48
2022/02/28 05:49:44;;;;;;;;;;;;;;;;;;2098177;28;20434;-47
2022/02/28 05:50:45;;;;;;;;;;;;;;;;;;2096625;28;19932;-48
2022/02/28 05:51:46;;;;;;;;;;;;;;;;;;2091579;28;19944;-48
2022/02/28 05:52:48;;;;;;;;;;;;;;;;;;2090234;28;20401;-48
2022/02/28 05:53:49;;;;;;;;;;;;;;;;;;2094119;28;19964;-43
2022/02/28 05:54:51;;;;;;;;;;;;;;;;;;2092538;28;19928;-43
2022/02/28 05:55:52;;;;;;;;;;;;;;;;;;2090135;28;19981;-42
2022/02/28 05:56:52;;;;;;;;;;;;;;;;;;2093231;28;19956;-44
2022/02/28 05:57:54;;;;;;;;;;;;;;;;;;2090299;28;19929;-43
2022/02/28 05:58:55;;;;;;;;;;;;;;;;;;2092107;28;19925;-48
2022/02/28 05:59:56;;;;;;;;;;;;;;;;;;2097435;28;19924;-47
2022/02/28 06:00:57;;;;;;;;;;;;;;;;;;2091163;28;20453;-43
2022/02/28 06:01:58;;;;;;;;;;;;;;;;;;2092549;28;19963;-43
2022/02/28 06:02:59;;;;;;;;;;;;;;;;;;2095080;28;19925;-42
2022/02/28 06:04:00;;;;;;;;;;;;;;;;;;2098861;28;19925;-43
2022/02/28 06:05:00;;;;;;;;;;;;;;;;;;2095185;28;20023;-43
2022/02/28 06:06:01;;;;;;;;;;;;;;;;;;2098594;28;20011;-42
2022/02/28 06:07:02;;;;;;;;;;;;;;;;;;2098579;28;20030;-43
2022/02/28 06:08:03;;;;;;;;;;;;;;;;;;2096719;28;19935;-46
2022/02/28 06:09:04;;;;;;;;;;;;;;;;;;2091484;28;19948;-43
2022/02/28 06:10:06;;;;;;;;;;;;;;;;;;2091721;28;19932;-43
2022/02/28 06:11:07;;;;;;;;;;;;;;;;;;2093693;28;19932;-48
2022/02/28 06:12:08;;;;;;;;;;;;;;;;;;2093046;28;19939;-49
2022/02/28 06:13:09;;;;;;;;;;;;;;;;;;2092177;28;19924;-43
2022/02/28 06:14:10;;;;;;;;;;;;;;;;;;2097136;28;19931;-43
2022/02/28 06:15:22;;;;;;;;;;;;;;;;;;2095364;28;19960;-43
2022/02/28 06:16:23;;;;;;;;;;;;;;;;;;2093892;28;19963;-43
2022/02/28 06:17:24;;;;;;;;;;;;;;;;;;2096823;28;19924;-44
2022/02/28 06:18:25;;;;;;;;;;;;;;;;;;2096953;28;19924;-43
2022/02/28 06:19:26;;;;;;;;;;;;;;;;;;2093690;28;19951;-43
2022/02/28 06:20:27;;;;;;;;;;;;;;;;;;2098800;28;20370;-44
2022/02/28 06:21:27;;;;;;;;;;;;;;;;;;2097764;28;19937;-43
2022/02/28 06:22:30;;;;;;;;;;;;;;;;;;2093179;28;20019;-44
2022/02/28 06:23:31;;;;;;;;;;;;;;;;;;2092185;28;20374;-44
2022/02/28 06:24:32;;;;;;;;;;;;;;;;;;2095626;28;19925;-51
2022/02/28 06:25:32;;;;;;;;;;;;;;;;;;2097242;28;19931;-44
2022/02/28 06:26:33;;;;;;;;;;;;;;;;;;2098644;28;19931;-51
2022/02/28 06:27:34;;;;;;;;;;;;;;;;;;2094734;28;20329;-43
2022/02/28 06:28:35;;;;;;;;;;;;;;;;;;2098251;28;19925;-44
2022/02/28 06:29:36;;;;;;;;;;;;;;;;;;2095644;28;20386;-44
2022/02/28 06:30:37;;;;;;;;;;;;;;;;;;2092295;28;20008;-44
2022/02/28 06:31:43;;;;;;;;;;;;;;;;;;2098119;28;19928;-44
2022/02/28 06:32:46;;;;;;;;;;;;;;;;;;2098118;28;20240;-44
2022/02/28 06:33:47;;;;;;;;;;;;;;;;;;2097133;28;19983;-44
2022/02/28 06:34:49;;;;;;;;;;;;;;;;;;2098494;28;19928;-45
2022/02/28 06:35:49;;;;;;;;;;;;;;;;;;2097319;28;19925;-44
2022/02/28 06:36:50;;;;;;;;;;;;;;;;;;2096576;28;20423;-45
2022/02/28 06:37:51;;;;;;;;;;;;;;;;;;2098398;28;20395;-44
2022/02/28 06:38:52;;;;;;;;;;;;;;;;;;2096323;28;19924;-45
2022/02/28 06:39:53;;;;;;;;;;;;;;;;;;2093643;28;19925;-45
2022/02/28 06:40:55;;;;;;;;;;;;;;;;;;2098286;28;20352;-44
2022/02/28 06:41:59;;;;;;;;;;;;;;;;;;2094994;28;20078;-49
2022/02/28 06:43:00;;;;;;;;;;;;;;;;;;2098538;28;20296;-49
2022/02/28 06:44:02;;;;;;;;;;;;;;;;;;2097919;28;19931;-49
2022/02/28 06:45:03;;;;;;;;;;;;;;;;;;2096343;28;19925;-51
2022/02/28 06:46:04;;;;;;;;;;;;;;;;;;2094849;28;19962;-51
2022/02/28 06:47:04;;;;;;;;;;;;;;;;;;2091429;28;20401;-49
2022/02/28 06:48:05;;;;;;;;;;;;;;;;;;2095424;28;19930;-48
2022/02/28 06:49:06;;;;;;;;;;;;;;;;;;2093717;28;20037;-51
2022/02/28 06:50:07;;;;;;;;;;;;;;;;;;2093421;28;19932;-50
2022/02/28 06:51:08;;;;;;;;;;;;;;;;;;2091349;28;20381;-49
2022/02/28 06:52:09;;;;;;;;;;;;;;;;;;2090296;28;19956;-53
2022/02/28 06:53:10;;;;;;;;;;;;;;;;;;2093653;28;19990;-51
2022/02/28 06:54:11;;;;;;;;;;;;;;;;;;2090218;28;19968;-50
2022/02/28 06:55:12;;;;;;;;;;;;;;;;;;2090325;28;20412;-45
2022/02/28 06:56:13;;;;;;;;;;;;;;;;;;2094771;28;19924;-45
2022/02/28 06:57:14;;;;;;;;;;;;;;;;;;2098342;28;20285;-45
2022/02/28 06:58:21;;;;;;;;;;;;;;;;;;2097646;28;19924;-44